createdAt,value
2023-05-14T00:03:38.885Z,11.86
2023-05-14T00:08:41.053Z,12.57
2023-05-14T00:13:43.471Z,12.86
2023-05-14T00:18:45.685Z,12.30
2023-05-14T00:23:48.270Z,11.31
2023-05-14T00:28:50.830Z,12.44
2023-05-14T00:33:53.388Z,11.66
2023-05-14T00:38:56.037Z,12.10
2023-05-14T00:43:58.305Z,12.24
2023-05-14T00:49:01.020Z,12.32
2023-05-14T00:54:03.676Z,11.04
2023-05-14T00:59:06.159Z,12.39
2023-05-14T01:04:10.914Z,11.33
2023-05-14T01:09:31.691Z,10.32
2023-05-14T01:14:57.231Z,10.81
2023-05-14T01:20:00.913Z,10.88
2023-05-14T01:25:03.244Z,10.67
2023-05-14T01:30:37.621Z,10.52
2023-05-14T01:35:41.298Z,10.61
2023-05-14T01:40:45.578Z,10.53
2023-05-14T01:45:48.121Z,10.20
2023-05-14T01:50:50.793Z,10.36
2023-05-14T01:55:53.057Z,10.24
2023-05-14T02:00:55.266Z,10.70
2023-05-14T02:05:57.533Z,10.09
2023-05-14T02:10:59.796Z,9.87
2023-05-14T02:16:02.105Z,9.85
2023-05-14T02:21:04.579Z,10.09
2023-05-14T02:26:08.643Z,10.25
2023-05-14T02:31:10.848Z,10.86
2023-05-14T02:36:13.471Z,10.32
2023-05-14T02:41:15.613Z,10.08
2023-05-14T02:46:17.938Z,9.79
2023-05-14T02:51:21.623Z,10.71
2023-05-14T02:56:23.996Z,10.18
2023-05-14T03:01:26.462Z,9.94
2023-05-14T03:06:29.248Z,9.99
2023-05-14T03:11:31.686Z,10.25
2023-05-14T03:16:33.999Z,10.11
2023-05-14T03:21:36.347Z,10.51
2023-05-14T03:26:38.519Z,9.52
2023-05-14T03:31:40.868Z,10.10
2023-05-14T03:36:43.185Z,10.70
2023-05-14T03:41:46.473Z,10.75
2023-05-14T03:46:48.915Z,10.46
2023-05-14T03:51:51.101Z,11.14
2023-05-14T03:56:53.426Z,10.99
2023-05-14T04:01:55.749Z,11.24
2023-05-14T04:06:57.995Z,10.84
2023-05-14T04:12:00.361Z,10.23
2023-05-14T04:17:02.902Z,11.46
2023-05-14T04:22:05.739Z,10.14
2023-05-14T04:27:07.957Z,10.27
2023-05-14T04:32:10.693Z,10.64
2023-05-14T04:37:13.075Z,10.76
2023-05-14T04:42:15.293Z,10.46
2023-05-14T04:47:17.797Z,11.79
2023-05-14T04:52:20.046Z,11.52
2023-05-14T04:57:22.166Z,10.99
2023-05-14T05:02:24.433Z,11.27
2023-05-14T05:07:26.676Z,11.92
2023-05-14T05:12:30.211Z,11.97
2023-05-14T05:17:32.603Z,11.98
2023-05-14T05:22:34.842Z,11.42
2023-05-14T05:27:37.113Z,12.21
2023-05-14T05:32:39.505Z,12.62
2023-05-14T05:37:42.507Z,13.00
2023-05-14T05:42:44.712Z,12.88
2023-05-14T05:47:47.021Z,13.01
2023-05-14T05:52:49.361Z,13.23
2023-05-14T05:57:51.609Z,13.51
2023-05-14T06:02:53.981Z,13.23
2023-05-14T06:07:56.248Z,12.78
2023-05-14T06:12:58.458Z,12.92
2023-05-14T06:18:00.811Z,14.17
2023-05-14T06:23:03.104Z,14.38
2023-05-14T06:28:05.548Z,13.21
2023-05-14T06:33:07.946Z,13.18
2023-05-14T06:38:10.197Z,13.34
2023-05-14T06:43:12.424Z,13.48
2023-05-14T06:48:14.815Z,14.13
2023-05-14T06:53:17.207Z,13.22
2023-05-14T06:58:19.486Z,14.20
2023-05-14T07:03:22.414Z,13.58
2023-05-14T07:08:24.693Z,14.15
2023-05-14T07:13:28.892Z,14.23
2023-05-14T07:18:31.413Z,14.85
2023-05-14T07:23:38.500Z,15.75
2023-05-14T07:28:40.630Z,14.65
2023-05-14T07:33:42.848Z,15.29
2023-05-14T07:38:45.076Z,15.62
2023-05-14T07:43:47.313Z,14.60
2023-05-14T07:48:49.546Z,14.96
2023-05-14T07:53:51.624Z,15.89
2023-05-14T07:58:53.808Z,15.25
2023-05-14T08:03:56.049Z,16.50
2023-05-14T08:08:58.426Z,15.25
2023-05-14T08:14:01.048Z,15.94
2023-05-14T08:19:03.292Z,16.24
2023-05-14T08:24:06.112Z,16.97
2023-05-14T08:29:10.013Z,15.94
2023-05-14T08:34:13.129Z,17.65
2023-05-14T08:39:15.454Z,17.13
2023-05-14T08:44:33.200Z,17.93
2023-05-14T08:49:46.733Z,17.82
2023-05-14T08:54:51.401Z,16.98
2023-05-14T08:59:54.493Z,18.12
2023-05-14T09:04:59.260Z,18.27
2023-05-14T09:10:02.808Z,18.69
2023-05-14T09:15:06.440Z,18.69
2023-05-14T09:20:12.254Z,18.71
2023-05-14T09:25:14.396Z,18.07
2023-05-14T09:30:17.072Z,18.01
2023-05-14T09:35:22.753Z,17.76
2023-05-14T09:40:25.415Z,18.45
2023-05-14T09:45:27.732Z,19.32
2023-05-14T09:50:30.148Z,18.07
2023-05-14T09:55:32.797Z,18.38
2023-05-14T10:00:35.898Z,18.53
2023-05-14T10:05:41.235Z,19.19
2023-05-14T10:10:43.484Z,19.26
2023-05-14T10:16:02.675Z,19.57
2023-05-14T10:21:06.986Z,20.44
2023-05-14T10:26:10.022Z,20.25
2023-05-14T10:31:13.631Z,20.06
2023-05-14T10:36:16.548Z,19.91
2023-05-14T10:41:21.622Z,20.91
2023-05-14T10:46:23.918Z,20.61
2023-05-14T10:51:26.634Z,18.94
2023-05-14T10:56:29.792Z,20.95
2023-05-14T11:01:32.598Z,21.03
2023-05-14T11:06:38.161Z,19.88
2023-05-14T11:11:40.683Z,20.89
2023-05-14T11:16:43.542Z,21.44
2023-05-14T11:21:46.125Z,19.60
2023-05-14T11:26:48.314Z,21.67
2023-05-14T11:31:51.151Z,20.82
2023-05-14T11:36:53.289Z,20.71
2023-05-14T11:41:55.701Z,21.38
2023-05-14T11:46:59.351Z,21.96
2023-05-14T11:52:11.532Z,20.19
2023-05-14T11:57:19.930Z,20.65
2023-05-14T12:02:23.096Z,20.63
2023-05-14T12:07:30.588Z,21.72
2023-05-14T12:12:39.971Z,21.99
2023-05-14T12:17:42.466Z,22.14
2023-05-14T12:22:44.651Z,21.83
2023-05-14T12:27:46.897Z,20.86
2023-05-14T12:32:51.833Z,21.51
2023-05-14T12:37:54.298Z,20.75
2023-05-14T12:42:56.973Z,21.28
2023-05-14T12:47:59.413Z,21.16
2023-05-14T12:53:01.605Z,20.97
2023-05-14T12:58:04.260Z,20.70
2023-05-14T13:03:06.499Z,20.03
2023-05-14T13:08:10.014Z,20.20
2023-05-14T13:13:13.053Z,19.11
2023-05-14T13:18:17.346Z,19.38
2023-05-14T13:23:19.561Z,19.95
2023-05-14T13:28:21.677Z,20.01
2023-05-14T13:33:23.768Z,19.64
2023-05-14T13:38:26.014Z,19.60
2023-05-14T13:43:31.940Z,19.71
2023-05-14T13:48:35.746Z,19.66
2023-05-14T13:53:37.977Z,19.14
2023-05-14T13:58:40.246Z,20.24
2023-05-14T14:03:42.450Z,20.33
2023-05-14T14:08:44.809Z,19.43
2023-05-14T14:13:47.518Z,19.30
2023-05-14T14:18:49.746Z,18.78
2023-05-14T14:23:52.041Z,19.03
2023-05-14T14:28:54.896Z,18.61
2023-05-14T14:33:57.144Z,18.62
2023-05-14T14:38:59.413Z,18.67
2023-05-14T14:44:02.773Z,19.24
2023-05-14T14:49:05.162Z,19.10
2023-05-14T14:54:07.456Z,21.02
2023-05-14T14:59:09.683Z,21.40
2023-05-14T15:04:11.792Z,21.54
2023-05-14T15:09:14.014Z,20.93
2023-05-14T15:14:16.266Z,21.53
2023-05-14T15:19:18.610Z,20.39
2023-05-14T15:24:21.103Z,20.24
2023-05-14T15:29:23.379Z,20.45
2023-05-14T15:34:26.108Z,20.17
2023-05-14T15:39:29.582Z,20.23
2023-05-14T15:44:32.464Z,20.48
2023-05-14T15:49:34.573Z,20.86
2023-05-14T15:54:36.943Z,19.97
2023-05-14T15:59:39.502Z,19.70
2023-05-14T16:04:42.097Z,19.70
2023-05-14T16:09:44.377Z,20.08
2023-05-14T16:14:46.593Z,20.98
2023-05-14T16:19:48.858Z,20.69
2023-05-14T16:24:51.026Z,19.69
2023-05-14T16:29:53.614Z,19.22
2023-05-14T16:34:56.501Z,19.46
2023-05-14T16:39:58.719Z,19.20
2023-05-14T16:45:01.125Z,18.96
2023-05-14T16:50:03.368Z,18.76
2023-05-14T16:55:06.301Z,18.22
2023-05-14T17:00:09.604Z,18.04
2023-05-14T17:05:11.763Z,18.93
2023-05-14T17:10:14.050Z,19.32
2023-05-14T17:15:16.719Z,19.41
2023-05-14T17:20:18.880Z,19.23
2023-05-14T17:25:23.660Z,19.28
2023-05-14T17:30:26.177Z,18.55
2023-05-14T17:35:28.507Z,18.90
2023-05-14T17:40:30.846Z,18.98
2023-05-14T17:45:42.589Z,18.82
2023-05-14T17:50:48.963Z,18.48
2023-05-14T17:55:51.637Z,17.99
2023-05-14T18:00:53.836Z,18.09
2023-05-14T18:05:56.216Z,18.02
2023-05-14T18:11:00.711Z,18.17
2023-05-14T18:16:03.917Z,17.96
2023-05-14T18:21:06.024Z,17.82
2023-05-14T18:26:08.432Z,17.78
2023-05-14T18:31:10.719Z,18.03
2023-05-14T18:36:12.860Z,17.78
2023-05-14T18:41:15.105Z,17.29
2023-05-14T18:46:18.236Z,17.16
2023-05-14T18:51:20.592Z,16.72
2023-05-14T18:56:22.764Z,16.74
2023-05-14T19:01:25.753Z,16.75
2023-05-14T19:06:28.083Z,16.58
2023-05-14T19:11:30.386Z,16.70
2023-05-14T19:16:32.631Z,16.64
2023-05-14T19:21:34.945Z,16.77
2023-05-14T19:26:37.360Z,16.31
2023-05-14T19:31:39.690Z,16.96
2023-05-14T19:36:42.398Z,16.96
2023-05-14T19:41:44.729Z,16.80
2023-05-14T19:46:46.967Z,16.67
2023-05-14T19:51:49.126Z,16.48
2023-05-14T19:56:51.221Z,16.84
2023-05-14T20:01:54.703Z,15.87
2023-05-14T20:06:57.004Z,16.01
2023-05-14T20:11:59.208Z,16.49
2023-05-14T20:17:01.726Z,16.08
2023-05-14T20:22:04.003Z,16.17
2023-05-14T20:27:06.655Z,15.64
2023-05-14T20:32:08.964Z,15.34
2023-05-14T20:37:11.100Z,15.55
2023-05-14T20:42:13.380Z,15.97
2023-05-14T20:47:20.229Z,16.35
2023-05-14T20:52:23.134Z,16.55
2023-05-14T20:57:25.655Z,16.50
2023-05-14T21:02:27.914Z,16.34
2023-05-14T21:07:30.320Z,16.21
2023-05-14T21:12:32.487Z,16.13
2023-05-14T21:17:34.875Z,16.16
2023-05-14T21:22:37.226Z,16.06
2023-05-14T21:27:39.414Z,15.85
2023-05-14T21:32:41.876Z,15.79
2023-05-14T21:37:44.194Z,15.55
2023-05-14T21:42:46.304Z,15.57
2023-05-14T21:47:48.477Z,15.21
2023-05-14T21:52:50.665Z,15.20
2023-05-14T21:57:52.899Z,15.55
2023-05-14T22:02:55.481Z,15.42
2023-05-14T22:07:57.790Z,15.37
2023-05-14T22:12:59.898Z,15.34
2023-05-14T22:18:03.374Z,14.98
2023-05-14T22:23:05.569Z,15.30
2023-05-14T22:28:07.795Z,15.25
2023-05-14T22:33:10.286Z,14.79
2023-05-14T22:38:14.089Z,14.91
2023-05-14T22:43:16.500Z,14.65
2023-05-14T22:48:18.758Z,14.80
2023-05-14T22:53:21.004Z,14.33
2023-05-14T22:58:23.180Z,14.62
2023-05-14T23:03:25.611Z,14.59
2023-05-14T23:08:27.885Z,13.65
2023-05-14T23:13:30.149Z,13.55
2023-05-14T23:18:33.079Z,13.58
2023-05-14T23:23:36.130Z,13.45
2023-05-14T23:28:38.521Z,14.04
2023-05-14T23:33:40.864Z,13.54
2023-05-14T23:38:43.294Z,13.73
2023-05-14T23:43:45.613Z,14.04
2023-05-14T23:48:47.888Z,14.78
2023-05-14T23:53:50.507Z,14.67
2023-05-14T23:58:52.964Z,14.25
